Time;durP1;ratioP1;P1;durP2;ratioP2;P2;SDS_P1;SDS_P2;PMS_P1;PMS_P2;Temp;Humidity;BMP_temperature;BMP_pressure;BME280_temperature;BME280_humidity;BME280_pressure;Samples;Min_cycle;Max_cycle;Signal;HPM_P1;HPM_P2
2022/01/18 00:01:26;;;;;;;5.43;3.70;;;;;;;-6.34;68.29;99159.03;5076834;28;20059;-80
2022/01/18 00:03:52;;;;;;;5.15;3.50;;;;;;;-6.42;68.55;99149.59;5093485;28;20040;-80
2022/01/18 00:06:18;;;;;;;4.50;3.05;;;;;;;-6.41;68.47;99160.84;5095165;28;20047;-79
2022/01/18 00:08:44;;;;;;;5.47;3.30;;;;;;;-6.38;68.25;99160.81;5093509;28;20040;-79
2022/01/18 00:11:10;;;;;;;6.00;3.13;;;;;;;-6.42;68.22;99152.19;5075733;28;20051;-77
2022/01/18 00:13:45;;;;;;;6.10;2.80;;;;;;;-6.46;67.99;99163.53;5076743;28;20044;-79
2022/01/18 00:16:38;;;;;;;4.22;3.03;;;;;;;-6.49;68.33;99157.50;5076518;28;20402;-78
2022/01/18 00:19:10;;;;;;;4.88;3.05;;;;;;;-6.50;68.02;99161.00;5093582;28;20051;-79
2022/01/18 00:22:04;;;;;;;3.67;2.88;;;;;;;-6.52;67.92;99173.13;5077761;28;20044;-78
2022/01/18 00:24:31;;;;;;;4.03;2.63;;;;;;;-6.64;68.24;99168.97;5095571;28;20035;-79
2022/01/18 00:26:57;;;;;;;4.38;2.72;;;;;;;-6.66;68.43;99181.97;5108273;28;20040;-79
2022/01/18 00:29:25;;;;;;;4.00;2.35;;;;;;;-6.67;68.35;99184.59;5108603;28;20077;-80
2022/01/18 00:34:30;;;;;;;4.88;3.13;;;;;;;-6.57;68.34;99185.34;5061475;28;20048;-80
2022/01/18 00:37:50;;;;;;;3.25;2.30;;;;;;;-6.60;68.21;99192.28;5076170;28;20047;-78
2022/01/18 00:39:46;;;;;;;2.03;1.83;;;;;;;-6.62;68.01;99188.88;5076497;28;20083;-80
2022/01/18 00:42:12;;;;;;;4.28;2.22;;;;;;;-6.67;67.77;99188.06;5094775;28;20121;-83
2022/01/18 00:44:38;;;;;;;3.20;2.20;;;;;;;-6.70;68.08;99180.28;5060092;28;20048;-82
2022/01/18 00:47:04;;;;;;;3.25;2.53;;;;;;;-6.76;68.22;99175.19;5059906;28;20143;-82
2022/01/18 00:49:32;;;;;;;2.58;2.08;;;;;;;-6.68;67.83;99175.94;5093153;28;20081;-82
2022/01/18 00:52:03;;;;;;;3.40;2.55;;;;;;;-6.73;67.76;99169.97;5042550;28;20048;-80
2022/01/18 00:54:36;;;;;;;4.32;2.80;;;;;;;-6.84;68.39;99171.84;5060293;28;20060;-80
2022/01/18 00:57:03;;;;;;;3.97;2.65;;;;;;;-6.86;68.19;99178.78;5077356;28;20071;-79
2022/01/18 00:59:29;;;;;;;4.95;3.17;;;;;;;-6.85;68.36;99175.28;5059235;28;20155;-80
2022/01/18 01:01:55;;;;;;;4.65;2.85;;;;;;;-6.76;68.17;99174.34;5075594;28;20491;-79
2022/01/18 01:04:25;;;;;;;4.13;3.00;;;;;;;-6.79;67.93;99167.44;5092339;28;20046;-79
2022/01/18 01:06:51;;;;;;;5.43;3.03;;;;;;;-6.82;68.09;99177.00;5076059;28;20142;-80
2022/01/18 01:09:17;;;;;;;3.38;2.67;;;;;;;-6.87;68.38;99182.25;5076020;28;20495;-79
2022/01/18 01:11:43;;;;;;;4.30;2.80;;;;;;;-7.01;68.40;99186.75;5092502;28;20064;-80
2022/01/18 01:14:13;;;;;;;5.57;2.97;;;;;;;-6.91;68.56;99185.78;5092113;28;20048;-79
2022/01/18 01:16:51;;;;;;;4.30;2.15;;;;;;;-6.90;68.19;99183.16;5075973;28;20502;-79
2022/01/18 01:33:20;;;;;;;5.45;2.63;;;;;;;-6.93;68.16;99172.78;5091761;28;20040;-79
2022/01/18 01:36:00;;;;;;;3.08;2.60;;;;;;;-6.88;68.29;99160.63;5093014;28;20051;-80
2022/01/18 01:44:08;;;;;;;4.93;3.00;;;;;;;-6.72;68.00;99174.28;5077523;28;20072;-79
2022/01/18 01:46:35;;;;;;;6.25;3.22;;;;;;;-6.64;67.86;99180.22;5093096;28;20039;-79
2022/01/18 01:49:03;;;;;;;3.25;2.63;;;;;;;-6.64;67.81;99175.03;5091785;28;20093;-81
2022/01/18 01:51:30;;;;;;;4.38;3.00;;;;;;;-6.63;67.61;99170.69;5059272;28;20048;-80
2022/01/18 01:53:58;;;;;;;4.63;3.47;;;;;;;-6.49;67.83;99189.56;5074976;28;20506;-80
2022/01/18 01:56:25;;;;;;;6.30;3.50;;;;;;;-6.42;67.37;99186.00;5075248;28;20044;-81
2022/01/18 01:58:50;;;;;;;4.22;3.15;;;;;;;-6.39;67.39;99198.97;5091815;28;20051;-81
2022/01/18 02:01:16;;;;;;;6.95;3.63;;;;;;;-6.41;67.33;99190.31;5059688;28;20131;-79
2022/01/18 02:03:42;;;;;;;3.65;2.90;;;;;;;-6.37;66.93;99201.53;5097848;28;20054;-80
2022/01/18 02:06:08;;;;;;;5.28;3.20;;;;;;;-6.34;67.00;99198.03;5079325;28;20090;-80
2022/01/18 02:08:34;;;;;;;6.80;3.70;;;;;;;-6.35;67.11;99186.78;5079123;28;20040;-79
2022/01/18 02:11:01;;;;;;;6.53;3.15;;;;;;;-6.39;67.15;99190.31;5096384;28;20131;-79
2022/01/18 02:13:27;;;;;;;4.30;3.03;;;;;;;-6.32;67.03;99191.91;5063954;28;20044;-81
2022/01/18 02:24:02;;;;;;;4.60;3.55;;;;;;;-6.34;66.88;99182.44;5095609;28;20482;-79
2022/01/18 02:26:28;;;;;;;6.47;3.55;;;;;;;-6.31;66.93;99185.84;5095293;28;20447;-79
2022/01/18 02:28:54;;;;;;;2.90;2.60;;;;;;;-6.27;67.10;99192.72;5096425;28;20479;-80
2022/01/18 02:31:20;;;;;;;6.55;4.13;;;;;;;-6.34;67.37;99188.47;5078216;28;20407;-78
2022/01/18 02:33:46;;;;;;;5.60;3.08;;;;;;;-6.31;67.26;99188.44;5078076;28;20036;-79
2022/01/18 02:36:12;;;;;;;4.63;3.20;;;;;;;-6.25;67.11;99183.13;5094781;28;20074;-80
2022/01/18 02:38:38;;;;;;;5.07;3.25;;;;;;;-6.34;67.20;99201.50;5077902;28;20044;-80
2022/01/18 02:41:06;;;;;;;4.38;2.78;;;;;;;-6.38;67.22;99202.41;5094354;28;20383;-80
2022/01/18 02:43:46;;;;;;;5.95;3.10;;;;;;;-6.28;67.15;99201.41;5077739;28;20544;-79
2022/01/18 02:46:13;;;;;;;3.63;2.78;;;;;;;-6.34;67.41;99201.50;5080406;28;20049;-79
2022/01/18 02:48:39;;;;;;;3.33;2.42;;;;;;;-6.32;67.18;99210.09;5094774;28;20071;-78
2022/01/18 02:51:05;;;;;;;5.13;3.13;;;;;;;-6.31;67.38;99218.81;5096179;28;20048;-79
2022/01/18 02:53:31;;;;;;;3.58;2.85;;;;;;;-6.22;67.15;99206.50;5077858;28;20441;-79
2022/01/18 02:55:58;;;;;;;4.43;3.10;;;;;;;-6.28;67.30;99214.41;5044646;28;20136;-79
2022/01/18 02:58:28;;;;;;;7.78;3.15;;;;;;;-6.13;67.11;99210.69;5044338;28;20062;-79
2022/01/18 03:03:26;;;;;;;6.85;3.42;;;;;;;-6.12;67.03;99212.44;5079105;28;20372;-79
2022/01/18 03:05:52;;;;;;;7.38;3.28;;;;;;;-6.06;66.96;99214.09;5095702;28;20046;-79
2022/01/18 03:08:18;;;;;;;7.53;3.28;;;;;;;-6.05;67.09;99205.41;5095803;28;20044;-80
2022/01/18 03:10:44;;;;;;;4.88;2.78;;;;;;;-6.00;66.84;99220.06;5061136;28;20122;-79
2022/01/18 03:13:10;;;;;;;5.32;3.72;;;;;;;-5.91;66.82;99203.41;5094738;28;20070;-78
2022/01/18 03:15:36;;;;;;;3.53;2.72;;;;;;;-5.84;66.91;99202.41;5095138;28;20134;-78
2022/01/18 03:18:03;;;;;;;4.75;2.88;;;;;;;-5.86;66.40;99217.22;5095329;28;20552;-80
2022/01/18 03:20:29;;;;;;;6.20;3.33;;;;;;;-5.84;66.76;99220.63;5077454;28;20048;-80
2022/01/18 03:22:55;;;;;;;6.47;3.20;;;;;;;-5.84;66.78;99220.63;5044593;28;20040;-78
2022/01/18 03:28:05;;;;;;;7.55;3.35;;;;;;;-5.82;66.24;99233.66;5063859;28;20082;-79
2022/01/18 03:30:39;;;;;;;4.32;2.90;;;;;;;-5.82;66.39;99234.50;5062424;28;20139;-78
2022/01/18 03:33:07;;;;;;;4.20;2.67;;;;;;;-5.88;66.49;99229.38;5077575;27;20076;-79
2022/01/18 03:35:33;;;;;;;4.60;3.10;;;;;;;-5.93;66.44;99233.84;5077598;28;20044;-79
2022/01/18 03:37:59;;;;;;;5.15;3.40;;;;;;;-5.87;66.63;99234.59;5077075;28;20124;-78
2022/01/18 03:40:25;;;;;;;5.03;2.67;;;;;;;-5.83;66.33;99227.56;5043815;28;20047;-79
2022/01/18 03:42:52;;;;;;;3.90;2.75;;;;;;;-5.94;66.43;99219.09;5093768;28;20039;-79
2022/01/18 03:45:21;;;;;;;6.13;2.85;;;;;;;-5.93;66.71;99231.25;5111027;28;20044;-81
2022/01/18 03:47:47;;;;;;;4.45;3.42;;;;;;;-5.98;66.84;99218.31;5094148;28;20040;-79
2022/01/18 03:50:14;;;;;;;5.07;3.20;;;;;;;-6.00;66.82;99214.84;5059989;28;20051;-79
2022/01/18 03:52:40;;;;;;;5.38;3.60;;;;;;;-5.99;66.92;99226.13;5060260;28;20055;-78
2022/01/18 03:55:07;;;;;;;3.20;2.88;;;;;;;-6.07;67.17;99222.78;5076412;28;20044;-79
2022/01/18 03:57:34;;;;;;;4.07;2.58;;;;;;;-6.13;67.69;99223.72;5043605;28;20491;-81
2022/01/18 04:00:00;;;;;;;4.20;2.53;;;;;;;-6.06;67.92;99240.09;5060586;28;20040;-78
2022/01/18 04:02:26;;;;;;;3.40;2.40;;;;;;;-6.08;67.69;99234.94;5103372;28;20072;-78
2022/01/18 04:04:52;;;;;;;4.32;3.33;;;;;;;-6.16;68.02;99229.84;5104451;28;20055;-80
2022/01/18 04:07:18;;;;;;;4.88;3.10;;;;;;;-6.09;68.43;99251.44;5099315;28;20067;-79
2022/01/18 04:09:44;;;;;;;6.75;3.80;;;;;;;-6.04;68.36;99253.97;5095601;28;20040;-80
2022/01/18 04:12:10;;;;;;;4.68;2.28;;;;;;;-6.04;68.74;99248.75;5077273;28;20052;-79
2022/01/18 04:14:36;;;;;;;6.85;3.58;;;;;;;-5.96;68.54;99262.50;5059936;28;20124;-80
2022/01/18 04:27:32;;;;;;;3.53;2.63;;;;;;;-5.72;68.17;99238.66;5093937;28;20058;-76
2022/01/18 04:29:58;;;;;;;5.40;3.42;;;;;;;-5.67;67.89;99247.28;5092869;28;20505;-75
2022/01/18 04:32:23;;;;;;;3.22;2.60;;;;;;;-5.66;68.07;99251.59;5094100;28;20054;-78
2022/01/18 04:34:50;;;;;;;2.83;2.53;;;;;;;-5.59;68.08;99241.09;5042764;28;20068;-80
2022/01/18 04:37:16;;;;;;;6.03;3.53;;;;;;;-5.48;67.94;99233.97;5094133;28;20384;-78
2022/01/18 04:39:43;;;;;;;6.05;3.30;;;;;;;-5.39;67.85;99259.84;5092715;28;20425;-79
2022/01/18 04:42:17;;;;;;;6.63;3.80;;;;;;;-5.23;68.39;99261.31;5075522;28;20143;-79
2022/01/18 04:50:14;;;;;;;12.32;5.97;;;;;;;-5.02;67.76;99253.97;5091844;28;20411;-79
2022/01/18 04:52:40;;;;;;;8.95;5.30;;;;;;;-5.00;67.36;99257.41;5091479;28;20052;-81
2022/01/18 04:55:07;;;;;;;9.48;4.88;;;;;;;-5.00;67.33;99246.97;5092161;28;20146;-76
2022/01/18 05:00:17;;;;;;;9.10;5.22;;;;;;;-4.92;67.54;99234.69;5077374;28;20453;-79
2022/01/18 05:02:43;;;;;;;20.13;5.95;;;;;;;-4.92;67.63;99232.06;5075069;28;20570;-80
2022/01/18 05:05:11;;;;;;;10.90;6.20;;;;;;;-4.88;67.22;99225.91;5075126;28;20048;-81
2022/01/18 05:07:38;;;;;;;11.40;5.68;;;;;;;-4.79;67.40;99236.13;5074302;28;20131;-80
2022/01/18 05:10:05;;;;;;;9.77;5.60;;;;;;;-4.70;67.08;99237.69;5091493;28;20085;-79
2022/01/18 05:12:46;;;;;;;7.78;4.60;;;;;;;-4.51;70.47;99240.81;5091577;28;20481;-78
2022/01/18 05:15:38;;;;;;;9.57;4.88;;;;;;;-3.96;69.14;99239.59;5046106;28;20048;-78
2022/01/18 05:23:39;;;;;;;8.65;5.10;;;;;;;-3.68;67.99;99256.34;5078210;28;20048;-82
2022/01/18 05:26:08;;;;;;;13.63;6.25;;;;;;;-3.92;65.03;99251.69;5092085;28;20483;-79
2022/01/18 05:28:34;;;;;;;15.60;6.18;;;;;;;-3.95;65.25;99241.31;5125126;27;20094;-79
2022/01/18 05:31:00;;;;;;;17.25;6.25;;;;;;;-3.96;65.44;99260.47;5057739;28;20044;-77
2022/01/18 05:33:29;;;;;;;16.00;6.18;;;;;;;-3.89;65.32;99256.84;5074681;28;20514;-79
2022/01/18 05:35:55;;;;;;;15.27;6.65;;;;;;;-3.93;65.34;99258.66;5040743;28;20051;-80
2022/01/18 05:38:21;;;;;;;11.55;6.10;;;;;;;-3.86;65.56;99271.59;5057825;28;20044;-75
2022/01/18 05:40:47;;;;;;;9.15;5.70;;;;;;;-3.93;65.09;99253.44;5092497;28;20380;-80
2022/01/18 05:43:13;;;;;;;9.45;5.97;;;;;;;-4.00;65.23;99258.84;5091417;28;20042;-81
2022/01/18 05:45:39;;;;;;;15.82;7.75;;;;;;;-4.07;65.80;99258.09;5057771;28;20051;-85
2022/01/18 05:48:05;;;;;;;13.95;6.18;;;;;;;-4.13;66.31;99255.66;5074991;28;20073;-80
2022/01/18 05:50:31;;;;;;;15.55;7.30;;;;;;;-4.06;66.62;99253.75;5090863;28;20047;-80
2022/01/18 05:52:57;;;;;;;18.90;7.38;;;;;;;-3.93;66.02;99249.97;5091626;28;20048;-81
2022/01/18 05:55:23;;;;;;;10.95;5.28;;;;;;;-3.85;66.92;99258.47;5092380;28;20071;-79
2022/01/18 05:57:49;;;;;;;13.00;7.28;;;;;;;-3.95;66.52;99262.19;5074427;28;20071;-77
2022/01/18 06:00:23;;;;;;;17.27;7.13;;;;;;;-4.00;66.32;99261.44;5091105;28;20075;-80
2022/01/18 06:08:07;;;;;;;9.43;4.28;;;;;;;-3.85;66.69;99279.38;5062546;28;20048;-78
2022/01/18 06:10:34;;;;;;;11.45;5.28;;;;;;;-3.79;66.37;99273.16;5057972;28;20036;-82
2022/01/18 06:13:02;;;;;;;11.43;5.55;;;;;;;-3.85;66.33;99279.38;5057910;28;20123;-81
2022/01/18 06:15:29;;;;;;;13.95;5.20;;;;;;;-3.76;66.12;99267.84;5058517;28;20071;-81
2022/01/18 06:17:55;;;;;;;11.00;5.20;;;;;;;-3.76;65.85;99271.34;5074504;28;20040;-78
2022/01/18 06:20:21;;;;;;;10.85;5.70;;;;;;;-3.62;67.16;99273.63;5056940;28;20074;-84
2022/01/18 06:22:51;;;;;;;8.18;4.63;;;;;;;-2.93;70.61;99290.22;5091232;28;20040;-82
2022/01/18 06:25:18;;;;;;;11.30;5.32;;;;;;;-2.46;69.47;99277.56;5057811;28;20173;-80
2022/01/18 06:27:44;;;;;;;9.07;5.15;;;;;;;-2.20;67.20;99289.94;5053685;28;20068;-80
2022/01/18 06:30:10;;;;;;;17.92;5.75;;;;;;;-2.12;63.18;99292.31;5036995;28;20515;-80
2022/01/18 06:32:43;;;;;;;8.55;5.68;;;;;;;-2.43;61.84;99280.13;5038810;28;20040;-77
2022/01/18 06:35:10;;;;;;;;;;;;;;;-2.75;62.48;99289.69;5038142;28;20106;-80
2022/01/18 06:37:37;;;;;;;12.82;6.03;;;;;;;-2.83;62.92;99294.28;5053647;28;19963;-79
2022/01/18 06:40:04;;;;;;;14.35;7.30;;;;;;;-3.06;62.77;99280.94;5070948;28;20032;-80
2022/01/18 06:42:30;;;;;;;18.27;8.13;;;;;;;-3.21;63.52;99309.19;5037850;28;20040;-80
2022/01/18 06:44:56;;;;;;;13.25;6.95;;;;;;;-3.34;63.75;99315.63;5071818;28;20051;-83
2022/01/18 06:47:22;;;;;;;12.10;6.88;;;;;;;-2.90;71.39;99305.81;5071104;28;20041;-81
2022/01/18 06:49:49;;;;;;;24.33;8.20;;;;;;;-2.92;64.93;99310.22;5072838;28;20040;-80
2022/01/18 06:52:15;;;;;;;13.70;7.20;;;;;;;-2.99;63.51;99319.13;5073609;28;20044;-83
2022/01/18 06:54:41;;;;;;;12.48;6.15;;;;;;;-3.19;64.07;99304.81;5041211;28;20067;-79
2022/01/18 06:57:07;;;;;;;11.48;6.45;;;;;;;-3.14;63.90;99309.06;5057897;28;20480;-83
2022/01/18 06:59:37;;;;;;;14.77;5.97;;;;;;;-3.14;63.51;99298.59;5074645;28;20043;-84
2022/01/18 07:02:03;;;;;;;9.68;5.00;;;;;;;-3.24;63.43;99298.81;5024769;28;20075;-80
2022/01/18 07:04:29;;;;;;;168.18;68.70;;;;;;;-3.31;63.32;99302.50;5107225;28;20052;-81
2022/01/18 07:06:56;;;;;;;18.00;5.55;;;;;;;-3.43;64.03;99294.94;5059893;28;20036;-84
2022/01/18 07:09:25;;;;;;;4.97;3.60;;;;;;;-3.49;63.62;99297.72;5065686;28;20055;-83
2022/01/18 07:11:56;;;;;;;10.68;5.53;;;;;;;-3.56;64.38;99319.66;5073964;28;20586;-85
2022/01/18 07:14:22;;;;;;;9.27;5.30;;;;;;;-3.55;64.38;99300.47;5090620;28;20076;-85
2022/01/18 07:16:49;;;;;;;9.98;5.72;;;;;;;-3.52;64.06;99306.47;5075075;28;20067;-80
2022/01/18 07:19:15;;;;;;;10.07;6.43;;;;;;;-3.45;64.44;99312.44;5074301;28;20044;-81
2022/01/18 07:21:41;;;;;;;12.43;6.07;;;;;;;-3.29;64.13;99319.00;5075332;28;20067;-82
2022/01/18 07:24:17;;;;;;;12.82;5.63;;;;;;;-3.40;63.97;99318.38;5057011;28;20036;-82
2022/01/18 07:26:43;;;;;;;12.57;3.92;;;;;;;-3.38;63.62;99314.00;5058287;28;20086;-82
2022/01/18 07:29:10;;;;;;;9.68;4.18;;;;;;;-3.23;63.56;99304.94;5057045;28;20155;-79
2022/01/18 07:31:36;;;;;;;5.32;4.18;;;;;;;-3.39;63.82;99309.63;5075391;28;20040;-86
2022/01/18 07:34:02;;;;;;;9.07;5.05;;;;;;;-3.46;64.06;99321.13;5056352;28;20043;-77
2022/01/18 07:36:28;;;;;;;17.33;4.85;;;;;;;-3.41;64.11;99321.91;5057166;28;20079;-84
2022/01/18 07:38:55;;;;;;;5.75;3.70;;;;;;;-3.51;63.85;99325.63;5076383;28;20035;-86
2022/01/18 07:41:23;;;;;;;6.90;4.30;;;;;;;-3.53;64.43;99322.19;5091599;28;20032;-80
2022/01/18 07:43:48;;;;;;;6.22;4.03;;;;;;;-3.47;63.95;99327.25;5082400;28;20041;-77
2022/01/18 07:46:15;;;;;;;5.00;3.67;;;;;;;-3.51;64.52;99320.41;5087286;28;20049;-83
2022/01/18 07:48:41;;;;;;;9.80;3.65;;;;;;;-3.40;63.77;99344.53;5081693;28;20044;-89
2022/01/18 07:51:07;;;;;;;9.50;4.05;;;;;;;-3.49;63.61;99329.94;5075229;28;20040;-82
2022/01/18 07:53:33;;;;;;;7.53;4.20;;;;;;;-3.46;64.23;99347.25;5059229;28;20427;-92
2022/01/18 07:56:00;;;;;;;5.85;3.45;;;;;;;-3.31;63.93;99349.56;5077429;28;20151;-87
2022/01/18 07:58:26;;;;;;;6.70;4.05;;;;;;;-3.56;64.37;99337.94;5093032;28;20137;-82
2022/01/18 08:00:52;;;;;;;6.95;3.72;;;;;;;-3.61;64.67;99350.22;5056997;28;20067;-87
2022/01/18 08:03:19;;;;;;;6.05;3.58;;;;;;;-3.53;64.86;99356.16;5086949;28;20056;-79
2022/01/18 08:05:45;;;;;;;7.75;3.85;;;;;;;-3.54;65.25;99352.66;5081934;28;20044;-85
2022/01/18 08:08:11;;;;;;;5.68;3.90;;;;;;;-3.47;65.12;99356.00;5062798;28;20067;-81
2022/01/18 08:10:37;;;;;;;5.47;4.10;;;;;;;-3.41;64.84;99353.25;5064108;28;20103;-83
2022/01/18 08:13:03;;;;;;;4.35;2.72;;;;;;;-3.32;64.37;99365.25;5104447;28;20053;-89
2022/01/18 08:15:37;;;;;;;4.95;3.50;;;;;;;-3.43;64.27;99355.03;5070865;28;20043;-87
2022/01/18 08:18:08;;;;;;;5.75;3.67;;;;;;;-3.30;64.43;99366.09;5081346;28;20131;-89
2022/01/18 08:20:34;;;;;;;4.30;2.95;;;;;;;-3.46;63.50;99357.72;5061128;28;20067;-87
2022/01/18 08:23:00;;;;;;;4.13;3.15;;;;;;;-3.32;63.57;99363.50;5094302;28;20098;-89
2022/01/18 08:25:26;;;;;;;5.72;3.58;;;;;;;-3.22;63.40;99367.63;5076340;28;20040;-82
2022/01/18 08:27:53;;;;;;;5.63;3.10;;;;;;;-3.12;63.47;99370.00;5084337;28;20564;-88
2022/01/18 08:30:19;;;;;;;5.13;3.65;;;;;;;-2.88;63.38;99360.72;5045488;28;20045;-90
2022/01/18 08:32:47;;;;;;;4.68;3.50;;;;;;;-2.72;62.66;99364.63;5062388;28;20044;-91
2022/01/18 08:35:13;;;;;;;5.30;3.72;;;;;;;-2.80;62.45;99372.69;5080543;28;20079;-93
2022/01/18 08:37:39;;;;;;;3.40;2.70;;;;;;;-2.91;62.35;99369.47;5114485;28;20474;-93
2022/01/18 08:40:06;;;;;;;4.65;3.42;;;;;;;-2.87;62.31;99352.81;5080994;28;20143;-93
2022/01/18 08:42:32;;;;;;;6.03;3.85;;;;;;;-2.88;62.62;99347.63;5065932;28;20044;-95
2022/01/18 08:44:58;;;;;;;7.30;4.50;;;;;;;-2.88;62.43;99358.94;5060939;28;20071;-90
2022/01/18 08:47:24;;;;;;;5.10;2.95;;;;;;;-2.76;61.70;99360.38;5061284;28;20551;-93
2022/01/18 08:49:50;;;;;;;5.03;3.60;;;;;;;-2.87;62.01;99354.56;5079648;28;20055;-90
2022/01/18 08:52:16;;;;;;;9.18;3.40;;;;;;;-2.79;62.06;99352.59;5066458;28;20040;-89
2022/01/18 08:54:43;;;;;;;5.45;3.47;;;;;;;-2.67;62.42;99360.16;5097193;28;20071;-94
2022/01/18 08:57:12;;;;;;;5.72;3.97;;;;;;;-2.45;61.80;99357.81;5099393;28;20134;-84
2022/01/18 08:59:39;;;;;;;4.20;3.40;;;;;;;-2.44;61.36;99354.31;5095040;28;20130;-89
2022/01/18 09:02:08;;;;;;;6.80;3.75;;;;;;;-2.48;61.19;99342.22;5099162;28;20047;-88
2022/01/18 09:04:34;;;;;;;7.10;3.78;;;;;;;-2.41;61.24;99348.13;5061467;28;20085;-90
2022/01/18 09:07:07;;;;;;;2.53;2.33;;;;;;;-2.43;61.13;99344.69;5093891;28;20044;-92
2022/01/18 09:09:34;;;;;;;5.22;3.80;;;;;;;-2.49;61.60;99346.56;5081994;28;20040;-89
2022/01/18 09:12:00;;;;;;;4.22;3.13;;;;;;;-2.50;61.73;99349.22;5115177;28;20054;-89
2022/01/18 09:14:26;;;;;;;4.18;2.58;;;;;;;-2.68;61.79;99345.34;5098348;28;20047;-89
2022/01/18 09:16:53;;;;;;;5.10;3.58;;;;;;;-2.60;61.75;99350.38;5095575;28;20054;-91
2022/01/18 09:19:19;;;;;;;7.88;3.67;;;;;;;-2.47;62.03;99350.00;5105412;28;20048;-95
2022/01/18 09:21:48;;;;;;;4.72;3.50;;;;;;;-2.32;61.23;99340.03;5067326;28;20051;-95
2022/01/18 09:24:15;;;;;;;6.70;4.28;;;;;;;-2.28;61.27;99345.13;5100489;28;20065;-96
2022/01/18 09:26:42;;;;;;;5.95;3.85;;;;;;;-2.46;61.74;99348.25;5102423;28;20058;-92
2022/01/18 09:29:09;;;;;;;5.38;3.30;;;;;;;-2.53;62.09;99349.31;5123161;28;20038;-94
2022/01/18 09:31:37;;;;;;;4.40;3.10;;;;;;;-2.64;61.93;99331.28;5081274;28;20044;-93
2022/01/18 09:34:04;;;;;;;5.35;3.72;;;;;;;-2.47;62.11;99346.53;5108537;28;20046;-92
2022/01/18 09:36:31;;;;;;;4.32;3.63;;;;;;;-2.51;62.29;99350.16;5079804;28;20059;-92
2022/01/18 09:38:58;;;;;;;4.72;3.63;;;;;;;-2.54;62.36;99348.47;5086042;28;20056;-94
2022/01/18 09:41:28;;;;;;;6.25;3.97;;;;;;;-2.62;62.39;99336.47;5102547;28;20044;-90
2022/01/18 09:43:54;;;;;;;4.40;3.40;;;;;;;-2.53;62.23;99342.31;5052968;28;20040;-88
2022/01/18 09:46:24;;;;;;;3.88;2.70;;;;;;;-2.45;61.87;99357.81;5102554;28;20043;-94
2022/01/18 09:48:51;;;;;;;;;;;;;;;-2.40;62.11;99348.09;5071188;28;20052;-95
2022/01/18 09:51:17;;;;;;;8.05;4.00;;;;;;;-2.43;62.46;99358.63;5084011;28;19930;-94
2022/01/18 09:53:43;;;;;;;6.53;4.05;;;;;;;-2.49;62.23;99350.94;5078850;28;20048;-93
2022/01/18 09:56:09;;;;;;;3.47;3.08;;;;;;;-2.37;62.24;99366.34;5059534;28;20048;-91
2022/01/18 09:58:36;;;;;;;4.85;3.65;;;;;;;-2.53;62.72;99358.00;5062723;28;20066;-87
2022/01/18 10:01:04;;;;;;;10.90;4.05;;;;;;;-2.58;62.80;99356.44;5094816;28;20044;-89
2022/01/18 10:03:34;;;;;;;5.22;3.45;;;;;;;-2.72;63.02;99344.56;5062933;28;20040;-88
2022/01/18 10:06:05;;;;;;;6.40;3.45;;;;;;;-2.63;65.40;99347.81;5058538;28;20415;-79
2022/01/18 10:08:31;;;;;;;15.10;3.65;;;;;;;-2.60;63.73;99350.38;5074770;28;20048;-81
2022/01/18 10:10:59;;;;;;;6.93;3.95;;;;;;;-2.48;64.51;99347.44;5075581;28;20050;-80
2022/01/18 10:13:26;;;;;;;4.22;3.30;;;;;;;-2.54;63.56;99352.84;5076079;28;20069;-83
2022/01/18 10:16:04;;;;;;;5.35;4.35;;;;;;;-2.59;63.55;99366.06;5059415;28;20562;-90
2022/01/18 10:19:02;;;;;;;5.15;3.72;;;;;;;-2.72;63.61;99357.63;5093845;28;20039;-89
2022/01/18 10:21:31;;;;;;;6.20;4.40;;;;;;;-2.80;64.24;99362.22;5087258;28;20099;-81
2022/01/18 10:24:25;;;;;;;5.33;3.17;;;;;;;-2.92;64.37;99357.31;5078476;28;20079;-87
2022/01/18 10:26:55;;;;;;;6.45;4.60;;;;;;;-2.80;64.64;99359.59;5062003;28;20035;-81
2022/01/18 10:29:32;;;;;;;4.22;3.30;;;;;;;-2.93;65.15;99355.59;5045469;28;20192;-82
2022/01/18 10:32:01;;;;;;;5.07;3.75;;;;;;;-3.11;65.66;99366.50;5061678;28;20134;-81
2022/01/18 10:37:15;;;;;;;6.43;4.45;;;;;;;-2.92;65.64;99380.00;5078561;28;20043;-84
2022/01/18 10:39:43;;;;;;;10.10;4.55;;;;;;;-2.95;65.50;99373.06;5095957;28;20551;-84
2022/01/18 10:42:49;;;;;;;6.55;4.57;;;;;;;-2.80;65.38;99372.69;5060767;28;20055;-83
2022/01/18 10:45:28;;;;;;;5.43;3.88;;;;;;;-2.73;65.26;99395.19;5077910;28;20402;-83
2022/01/18 10:47:57;;;;;;;7.78;4.57;;;;;;;-2.87;65.37;99381.56;5078352;28;20041;-82
2022/01/18 10:50:24;;;;;;;4.60;3.00;;;;;;;-2.74;65.59;99374.31;5094816;28;20503;-82
2022/01/18 10:52:52;;;;;;;4.82;4.03;;;;;;;-2.83;65.51;99370.13;5044448;28;20055;-85
2022/01/18 10:55:20;;;;;;;5.45;4.00;;;;;;;-2.89;66.58;99383.38;5078335;28;20048;-80
2022/01/18 10:57:46;;;;;;;6.10;4.28;;;;;;;-3.07;66.03;99395.16;5060326;28;20442;-80
2022/01/18 11:00:16;;;;;;;7.03;4.60;;;;;;;-3.09;66.49;99390.84;5093780;28;20499;-80
2022/01/18 11:02:43;;;;;;;;;;;;;;;-3.11;66.48;99390.03;5078771;28;20490;-80
2022/01/18 11:05:33;;;;;;;5.47;3.22;;;;;;;-3.13;66.37;99387.44;5094052;28;19969;-81
2022/01/18 11:08:06;;;;;;;5.47;3.92;;;;;;;-3.10;66.41;99407.44;5077662;28;20055;-82
2022/01/18 11:10:32;;;;;;;;;;;;;;;-3.13;66.33;99404.88;5044709;28;20075;-87
2022/01/18 11:13:11;;;;;;;4.63;3.38;;;;;;;-3.17;66.48;99391.88;5110724;28;19919;-81
2022/01/18 11:15:43;;;;;;;9.43;4.10;;;;;;;-3.18;66.71;99398.00;5061079;28;20040;-83
2022/01/18 11:18:24;;;;;;;6.68;4.50;;;;;;;-3.15;67.01;99412.78;5077808;28;20051;-80
2022/01/18 11:20:51;;;;;;;6.70;4.40;;;;;;;-3.13;66.36;99402.28;5066452;28;20107;-81
2022/01/18 11:23:17;;;;;;;4.68;3.65;;;;;;;-3.14;66.92;99392.72;5072857;28;20046;-80
2022/01/18 11:25:47;;;;;;;5.25;4.25;;;;;;;-3.22;66.79;99385.91;5098301;28;20040;-80
2022/01/18 11:28:15;;;;;;;7.47;5.38;;;;;;;-3.12;66.86;99396.13;5059275;28;20036;-81
2022/01/18 11:30:43;;;;;;;14.88;6.03;;;;;;;-3.12;66.96;99396.13;5060516;28;20590;-79
2022/01/18 11:33:15;;;;;;;9.88;4.97;;;;;;;-3.14;66.55;99393.56;5093458;28;20055;-79
2022/01/18 11:36:03;;;;;;;11.13;6.40;;;;;;;-3.33;66.94;99377.47;5059512;28;20047;-78
2022/01/18 11:38:49;;;;;;;13.00;6.20;;;;;;;-3.25;66.83;99395.59;5045716;28;20044;-77
2022/01/18 11:41:26;;;;;;;13.45;6.82;;;;;;;-3.29;66.89;99413.09;5061760;28;20043;-79
2022/01/18 11:43:55;;;;;;;14.10;8.55;;;;;;;-3.34;67.35;99419.34;5088076;28;20087;-80
2022/01/18 11:46:31;;;;;;;14.40;8.55;;;;;;;-3.48;67.81;99404.81;5064079;28;20044;-80
2022/01/18 11:49:23;;;;;;;15.75;7.40;;;;;;;-3.46;67.77;99404.75;5056568;28;20459;-79
2022/01/18 11:51:55;;;;;;;13.23;7.95;;;;;;;-3.52;67.99;99407.53;5057903;28;20052;-80
2022/01/18 11:57:21;;;;;;;16.65;7.60;;;;;;;-3.66;67.80;99406.06;5074578;28;20044;-84
2022/01/18 11:59:51;;;;;;;15.35;8.77;;;;;;;-3.63;68.28;99435.63;5056745;28;20168;-84
2022/01/18 12:02:40;;;;;;;15.48;8.00;;;;;;;-3.69;68.25;99427.00;5040137;28;20155;-81
2022/01/18 12:05:13;;;;;;;18.80;7.95;;;;;;;-3.78;68.37;99416.78;5066605;28;20050;-83
2022/01/18 12:07:41;;;;;;;14.23;7.07;;;;;;;-3.75;68.46;99421.09;5057340;28;20055;-82
2022/01/18 12:10:19;;;;;;;18.45;7.18;;;;;;;-3.80;68.43;99423.78;5055633;28;20071;-78
2022/01/18 12:12:48;;;;;;;9.63;6.60;;;;;;;-3.85;68.72;99425.63;5055065;28;20400;-80
2022/01/18 12:15:21;;;;;;;8.27;4.80;;;;;;;-3.97;68.88;99431.09;5055632;28;20076;-80
2022/01/18 12:17:48;;;;;;;7.60;5.18;;;;;;;-4.00;69.36;99442.44;5055923;28;20458;-79
2022/01/18 12:20:32;;;;;;;6.93;5.13;;;;;;;-4.00;68.87;99437.22;5072041;28;20443;-78
2022/01/18 12:23:03;;;;;;;8.75;5.95;;;;;;;-4.07;69.29;99433.00;5073976;28;20044;-80
2022/01/18 12:25:31;;;;;;;6.75;4.20;;;;;;;-4.10;69.39;99435.69;5071732;28;20520;-77
2022/01/18 12:28:02;;;;;;;9.23;6.22;;;;;;;-4.06;69.46;99436.47;5072212;28;20044;-82
2022/01/18 12:30:53;;;;;;;7.68;5.13;;;;;;;-4.07;69.47;99445.22;5089979;28;20056;-83
2022/01/18 12:33:20;;;;;;;8.20;4.70;;;;;;;-4.01;70.06;99447.72;5043899;28;20123;-86
2022/01/18 12:35:47;;;;;;;7.07;5.53;;;;;;;-3.98;69.66;99458.09;5055501;28;20046;-82
2022/01/18 12:38:22;;;;;;;6.05;4.55;;;;;;;-4.01;69.01;99472.06;5088667;28;20544;-85
2022/01/18 12:40:49;;;;;;;4.13;3.65;;;;;;;-4.07;69.21;99466.09;5072044;28;20032;-80
2022/01/18 12:45:42;;;;;;;8.35;5.63;;;;;;;-4.10;69.55;99476.59;5071576;28;20048;-77
2022/01/18 12:48:10;;;;;;;5.80;4.28;;;;;;;-4.10;69.41;99471.38;5072922;28;20499;-81
2022/01/18 12:50:37;;;;;;;5.90;4.68;;;;;;;-4.12;69.61;99470.56;5055440;28;20048;-79
2022/01/18 12:53:13;;;;;;;7.93;5.18;;;;;;;-4.01;69.24;99477.28;5072196;28;20205;-81